Time;durP1;ratioP1;P1;durP2;ratioP2;P2;SDS_P1;SDS_P2;PMS_P1;PMS_P2;Temp;Humidity;BMP_temperature;BMP_pressure;BME280_temperature;BME280_humidity;BME280_pressure;Samples;Min_cycle;Max_cycle;Signal;HPM_P1;HPM_P2
2022/10/01 00:02:03;;;;;;;9.57;8.53;;;;;;;;;;5075093;28;20451;-73
2022/10/01 00:04:30;;;;;;;13.87;8.27;;;;;;;;;;5074506;28;20921;-73
2022/10/01 00:07:01;;;;;;;10.63;8.60;;;;;;;;;;5075149;28;20534;-73
2022/10/01 00:09:29;;;;;;;9.83;8.00;;;;;;;;;;5075111;28;21009;-73
2022/10/01 00:11:58;;;;;;;10.37;8.90;;;;;;;;;;5074968;28;20448;-73
2022/10/01 00:14:27;;;;;;;9.33;8.20;;;;;;;;;;5074461;28;20475;-73
2022/10/01 00:16:54;;;;;;;11.77;9.23;;;;;;;;;;5074906;28;20463;-73
2022/10/01 00:19:21;;;;;;;11.20;8.60;;;;;;;;;;5074524;28;20455;-74
2022/10/01 00:21:49;;;;;;;10.47;8.50;;;;;;;;;;5075341;28;20457;-73
2022/10/01 00:24:16;;;;;;;9.80;8.07;;;;;;;;;;5074365;28;20495;-73
2022/10/01 00:26:44;;;;;;;9.80;8.47;;;;;;;;;;5074683;28;20456;-73
2022/10/01 00:29:12;;;;;;;12.97;9.47;;;;;;;;;;5074451;28;20506;-73
2022/10/01 00:31:41;;;;;;;13.00;10.00;;;;;;;;;;5074410;28;20829;-73
2022/10/01 00:34:08;;;;;;;12.67;10.07;;;;;;;;;;5074227;28;20448;-73
2022/10/01 00:36:35;;;;;;;16.37;9.97;;;;;;;;;;5074046;28;20487;-73
2022/10/01 00:39:02;;;;;;;15.40;10.33;;;;;;;;;;5074569;28;20940;-73
2022/10/01 00:41:30;;;;;;;10.07;8.40;;;;;;;;;;5074226;28;20457;-73
2022/10/01 00:43:58;;;;;;;11.83;9.20;;;;;;;;;;5073744;28;20494;-73
2022/10/01 00:46:29;;;;;;;11.27;9.20;;;;;;;;;;5074217;28;20828;-73
2022/10/01 00:48:59;;;;;;;12.20;9.70;;;;;;;;;;5074342;28;20542;-73
2022/10/01 00:51:29;;;;;;;10.70;8.97;;;;;;;;;;5074076;28;20550;-73
2022/10/01 00:54:00;;;;;;;9.53;8.50;;;;;;;;;;5073919;28;20933;-73
2022/10/01 00:56:27;;;;;;;10.50;8.53;;;;;;;;;;5074065;28;20497;-73
2022/10/01 00:58:55;;;;;;;11.40;8.47;;;;;;;;;;5073895;28;20458;-73
2022/10/01 01:01:23;;;;;;;11.27;9.20;;;;;;;;;;5074212;28;20452;-73
2022/10/01 01:03:50;;;;;;;9.80;7.47;;;;;;;;;;5073904;28;20483;-73
2022/10/01 01:06:18;;;;;;;10.60;7.70;;;;;;;;;;5074072;28;20468;-73
2022/10/01 01:08:47;;;;;;;10.37;7.87;;;;;;;;;;5073904;28;20447;-73
2022/10/01 01:11:17;;;;;;;11.07;8.77;;;;;;;;;;5074031;28;20493;-73
2022/10/01 01:13:49;;;;;;;11.47;9.93;;;;;;;;;;5073858;28;20448;-72
2022/10/01 01:16:20;;;;;;;11.40;8.83;;;;;;;;;;5073607;28;20478;-73
2022/10/01 01:18:51;;;;;;;10.13;8.47;;;;;;;;;;5074023;28;20882;-73
2022/10/01 01:21:22;;;;;;;14.80;9.47;;;;;;;;;;5074159;28;20493;-73
2022/10/01 01:24:10;;;;;;;11.33;9.10;;;;;;;;;;5073716;28;20964;-73
2022/10/01 01:26:43;;;;;;;8.77;7.73;;;;;;;;;;5073807;28;20440;-73
2022/10/01 01:29:17;;;;;;;14.97;8.67;;;;;;;;;;5073825;28;20432;-73
2022/10/01 01:31:46;;;;;;;15.53;8.80;;;;;;;;;;5073713;28;20902;-73
2022/10/01 01:34:17;;;;;;;12.57;9.57;;;;;;;;;;5073011;28;20452;-73
2022/10/01 01:36:46;;;;;;;10.97;9.40;;;;;;;;;;5073180;28;20455;-73
2022/10/01 01:39:15;;;;;;;13.07;9.43;;;;;;;;;;5073455;28;20534;-73
2022/10/01 01:41:47;;;;;;;10.50;8.80;;;;;;;;;;5073461;28;20443;-73
2022/10/01 01:44:16;;;;;;;10.53;9.10;;;;;;;;;;5072823;28;20486;-72
2022/10/01 01:46:48;;;;;;;11.63;9.23;;;;;;;;;;5073414;28;20451;-73
2022/10/01 01:49:16;;;;;;;12.60;10.03;;;;;;;;;;5073574;28;20424;-73
2022/10/01 01:51:46;;;;;;;13.10;8.90;;;;;;;;;;5073343;28;20546;-73
2022/10/01 01:54:13;;;;;;;11.50;9.20;;;;;;;;;;5073176;28;20798;-73
2022/10/01 01:56:40;;;;;;;11.10;9.00;;;;;;;;;;5073295;28;20452;-73
2022/10/01 01:59:08;;;;;;;14.17;8.63;;;;;;;;;;5073151;28;20602;-73
2022/10/01 02:01:38;;;;;;;8.07;7.27;;;;;;;;;;5072980;28;20459;-73
2022/10/01 02:04:07;;;;;;;11.37;7.37;;;;;;;;;;5072771;28;20514;-73
2022/10/01 02:06:41;;;;;;;9.47;7.97;;;;;;;;;;5073223;28;20501;-73
2022/10/01 02:09:12;;;;;;;9.13;7.90;;;;;;;;;;5073385;28;20950;-73
2022/10/01 02:11:43;;;;;;;10.77;8.80;;;;;;;;;;5072941;28;20447;-73
2022/10/01 02:14:16;;;;;;;10.43;9.20;;;;;;;;;;5073163;28;20435;-73
2022/10/01 02:16:48;;;;;;;12.20;10.07;;;;;;;;;;5072830;28;20949;-73
2022/10/01 02:19:20;;;;;;;12.17;10.17;;;;;;;;;;5072707;28;20978;-73
2022/10/01 02:21:54;;;;;;;12.50;8.47;;;;;;;;;;5077044;28;20442;-73
2022/10/01 02:24:25;;;;;;;11.13;9.00;;;;;;;;;;5076736;28;20491;-73
2022/10/01 02:26:52;;;;;;;11.87;8.37;;;;;;;;;;5077554;28;20447;-73
2022/10/01 02:29:21;;;;;;;11.40;8.70;;;;;;;;;;5076893;28;20448;-73
2022/10/01 02:31:52;;;;;;;12.20;9.30;;;;;;;;;;5077168;28;20455;-73
2022/10/01 02:34:20;;;;;;;9.50;8.47;;;;;;;;;;5076927;28;20976;-73
2022/10/01 02:36:48;;;;;;;14.30;9.90;;;;;;;;;;5076310;28;20459;-73
2022/10/01 02:39:16;;;;;;;16.20;9.97;;;;;;;;;;5077046;28;20459;-73
2022/10/01 02:41:44;;;;;;;12.73;9.30;;;;;;;;;;5077027;28;20955;-73
2022/10/01 02:44:14;;;;;;;13.70;10.00;;;;;;;;;;5076627;28;20502;-73
2022/10/01 02:46:44;;;;;;;12.60;10.40;;;;;;;;;;5076944;28;20440;-73
2022/10/01 02:49:13;;;;;;;13.00;10.37;;;;;;;;;;5077129;28;20455;-73
2022/10/01 02:51:44;;;;;;;9.87;8.87;;;;;;;;;;5076488;28;20463;-73
2022/10/01 02:54:13;;;;;;;11.40;9.00;;;;;;;;;;5076551;28;20774;-73
2022/10/01 02:59:26;;;;;;;12.63;10.50;;;;;;;;;;5076342;28;20489;-73
2022/10/01 03:01:53;;;;;;;11.00;9.40;;;;;;;;;;5076525;28;20455;-73
2022/10/01 03:04:21;;;;;;;11.53;9.37;;;;;;;;;;5076078;28;20487;-73
2022/10/01 03:06:48;;;;;;;13.10;10.20;;;;;;;;;;5076495;28;20811;-73
2022/10/01 03:09:15;;;;;;;18.30;11.07;;;;;;;;;;5076055;28;20439;-73
2022/10/01 03:11:43;;;;;;;15.70;11.50;;;;;;;;;;5076418;28;20455;-73
2022/10/01 03:14:10;;;;;;;13.90;10.50;;;;;;;;;;5076031;28;20802;-73
2022/10/01 03:16:37;;;;;;;13.17;9.90;;;;;;;;;;5076248;28;20451;-73
2022/10/01 03:19:05;;;;;;;12.00;10.43;;;;;;;;;;5075759;28;20941;-73
2022/10/01 03:21:33;;;;;;;12.90;10.37;;;;;;;;;;5076126;28;20455;-73
2022/10/01 03:24:00;;;;;;;13.67;10.10;;;;;;;;;;5075857;28;20479;-73
2022/10/01 03:26:27;;;;;;;11.47;9.60;;;;;;;;;;5075995;28;20807;-73
2022/10/01 03:28:54;;;;;;;20.20;11.77;;;;;;;;;;5075842;28;20438;-73
2022/10/01 03:31:22;;;;;;;12.77;9.73;;;;;;;;;;5075995;28;20459;-73
2022/10/01 03:33:49;;;;;;;14.00;11.03;;;;;;;;;;5075829;28;20806;-73
2022/10/01 03:36:16;;;;;;;14.10;10.50;;;;;;;;;;5075494;28;20471;-73
2022/10/01 03:38:44;;;;;;;13.90;9.50;;;;;;;;;;5075943;28;20439;-73
2022/10/01 03:41:11;;;;;;;12.17;9.90;;;;;;;;;;5075791;28;20451;-73
2022/10/01 03:43:39;;;;;;;11.47;9.37;;;;;;;;;;5075564;28;20490;-73
2022/10/01 03:46:06;;;;;;;10.20;8.77;;;;;;;;;;5075567;28;20471;-73
2022/10/01 03:48:33;;;;;;;10.50;9.00;;;;;;;;;;5075826;28;20444;-73
2022/10/01 03:51:00;;;;;;;16.03;8.37;;;;;;;;;;5075660;28;20771;-73
2022/10/01 03:53:30;;;;;;;14.40;11.20;;;;;;;;;;5075560;28;20458;-72
2022/10/01 03:55:58;;;;;;;14.07;10.43;;;;;;;;;;5075219;28;20478;-73
2022/10/01 03:58:26;;;;;;;12.10;10.37;;;;;;;;;;5075547;28;20822;-73
2022/10/01 04:00:53;;;;;;;11.00;9.90;;;;;;;;;;5075524;28;20796;-73
2022/10/01 04:03:21;;;;;;;17.77;9.93;;;;;;;;;;5075462;28;20478;-73
2022/10/01 04:05:48;;;;;;;12.73;10.33;;;;;;;;;;5075249;28;20463;-73
2022/10/01 04:08:16;;;;;;;13.33;10.40;;;;;;;;;;5075400;28;20456;-73
2022/10/01 04:10:43;;;;;;;13.90;10.37;;;;;;;;;;5075412;28;20451;-73
2022/10/01 04:13:11;;;;;;;20.53;16.20;;;;;;;;;;5075259;28;20452;-73
2022/10/01 04:15:39;;;;;;;13.33;10.90;;;;;;;;;;5075003;28;20499;-72
2022/10/01 04:18:06;;;;;;;12.00;9.90;;;;;;;;;;5075227;28;20505;-72
2022/10/01 04:20:33;;;;;;;13.23;10.27;;;;;;;;;;5075080;28;20447;-73
2022/10/01 04:23:00;;;;;;;12.73;10.77;;;;;;;;;;5075309;28;20905;-72
2022/10/01 04:25:28;;;;;;;12.97;10.57;;;;;;;;;;5075075;28;20553;-72
2022/10/01 04:27:56;;;;;;;15.57;12.07;;;;;;;;;;5074717;28;20452;-72
2022/10/01 04:30:25;;;;;;;24.07;17.30;;;;;;;;;;5075028;28;20454;-72
2022/10/01 04:32:52;;;;;;;27.13;21.10;;;;;;;;;;5073945;28;20458;-72
2022/10/01 04:35:20;;;;;;;19.63;16.77;;;;;;;;;;5073939;28;20432;-72
2022/10/01 04:37:48;;;;;;;17.77;14.00;;;;;;;;;;5074411;28;20259;-72
2022/10/01 04:40:16;;;;;;;24.10;14.87;;;;;;;;;;5074635;28;20513;-72
2022/10/01 04:42:43;;;;;;;21.87;16.20;;;;;;;;;;5074055;28;20953;-72
2022/10/01 04:45:12;;;;;;;24.60;15.83;;;;;;;;;;5074016;28;20523;-72
2022/10/01 04:47:47;;;;;;;24.73;15.73;;;;;;;;;;5074447;28;20490;-72
2022/10/01 04:50:15;;;;;;;38.10;26.10;;;;;;;;;;5074515;28;20432;-72
2022/10/01 04:52:42;;;;;;;24.83;18.03;;;;;;;;;;5074414;28;20874;-72
2022/10/01 04:55:09;;;;;;;17.93;14.77;;;;;;;;;;5073877;28;20486;-72
2022/10/01 04:57:37;;;;;;;16.27;11.90;;;;;;;;;;5074207;28;20952;-72
2022/10/01 05:00:05;;;;;;;15.60;12.77;;;;;;;;;;5074203;28;20459;-71
2022/10/01 05:02:33;;;;;;;17.47;13.47;;;;;;;;;;5074282;28;20827;-72
2022/10/01 05:05:02;;;;;;;14.47;11.73;;;;;;;;;;5072413;28;20526;-72
2022/10/01 05:07:30;;;;;;;17.17;13.33;;;;;;;;;;5071956;28;20486;-72
2022/10/01 05:09:57;;;;;;;16.83;13.03;;;;;;;;;;5072937;28;20970;-72
2022/10/01 05:12:24;;;;;;;14.87;12.10;;;;;;;;;;5072440;28;20983;-72
2022/10/01 05:14:52;;;;;;;35.63;24.37;;;;;;;;;;5072799;28;21023;-71
2022/10/01 05:17:19;;;;;;;26.80;17.90;;;;;;;;;;5073026;28;20471;-72
2022/10/01 05:19:47;;;;;;;18.83;14.40;;;;;;;;;;5073472;28;20481;-72
2022/10/01 05:22:16;;;;;;;19.90;13.83;;;;;;;;;;5073766;28;20432;-72
2022/10/01 05:24:43;;;;;;;22.87;15.67;;;;;;;;;;5073629;28;20491;-72
2022/10/01 05:27:12;;;;;;;20.17;14.97;;;;;;;;;;5073797;28;20447;-72
2022/10/01 05:29:39;;;;;;;30.07;17.80;;;;;;;;;;5073764;28;20489;-72
2022/10/01 05:32:07;;;;;;;23.00;17.00;;;;;;;;;;5073735;28;20483;-72
2022/10/01 05:34:34;;;;;;;22.87;16.87;;;;;;;;;;5073438;28;20491;-72
2022/10/01 05:37:01;;;;;;;42.53;30.00;;;;;;;;;;5073328;28;20459;-73
2022/10/01 05:39:30;;;;;;;26.50;18.30;;;;;;;;;;5073586;28;20458;-72
2022/10/01 05:41:57;;;;;;;20.80;16.50;;;;;;;;;;5073592;28;20435;-72
2022/10/01 05:44:24;;;;;;;22.30;16.10;;;;;;;;;;5073328;28;20495;-72
2022/10/01 05:46:53;;;;;;;22.27;16.50;;;;;;;;;;5073606;28;20824;-72
2022/10/01 05:49:20;;;;;;;39.30;26.50;;;;;;;;;;5073519;28;20929;-72
2022/10/01 05:51:48;;;;;;;29.83;21.13;;;;;;;;;;5073512;28;20470;-72
2022/10/01 05:54:18;;;;;;;21.87;16.57;;;;;;;;;;5072336;28;20547;-72
2022/10/01 05:56:46;;;;;;;25.90;16.37;;;;;;;;;;5073186;28;20451;-72
2022/10/01 05:59:13;;;;;;;18.80;13.83;;;;;;;;;;5073439;28;20447;-72
2022/10/01 06:01:41;;;;;;;19.13;12.97;;;;;;;;;;5073423;28;20814;-72
2022/10/01 06:04:10;;;;;;;15.77;12.47;;;;;;;;;;5073133;28;20451;-72
2022/10/01 06:06:37;;;;;;;13.00;10.83;;;;;;;;;;5073067;28;20464;-72
2022/10/01 06:09:04;;;;;;;13.50;10.93;;;;;;;;;;5072077;28;20456;-72
2022/10/01 06:11:31;;;;;;;12.83;10.70;;;;;;;;;;5072845;28;20475;-72
2022/10/01 06:14:00;;;;;;;13.20;10.77;;;;;;;;;;5072884;28;20459;-72
2022/10/01 06:16:27;;;;;;;9.07;8.13;;;;;;;;;;5072953;28;20452;-73
2022/10/01 06:18:56;;;;;;;7.70;6.77;;;;;;;;;;5072833;28;20451;-73
2022/10/01 06:21:23;;;;;;;7.20;6.40;;;;;;;;;;5073205;28;20456;-73
2022/10/01 06:23:51;;;;;;;11.17;7.47;;;;;;;;;;5073002;28;20436;-73
2022/10/01 06:26:18;;;;;;;8.33;6.57;;;;;;;;;;5073056;28;20497;-73
2022/10/01 06:28:45;;;;;;;6.50;5.90;;;;;;;;;;5073179;28;20448;-73
2022/10/01 06:31:14;;;;;;;7.50;6.70;;;;;;;;;;5073161;28;20819;-73
2022/10/01 06:33:41;;;;;;;6.53;6.00;;;;;;;;;;5072908;28;20961;-73
2022/10/01 06:36:08;;;;;;;6.50;5.53;;;;;;;;;;5073065;28;20470;-73
2022/10/01 06:38:35;;;;;;;6.27;5.77;;;;;;;;;;5072652;28;20551;-73
2022/10/01 06:41:04;;;;;;;5.43;4.90;;;;;;;;;;5072801;28;20451;-73
2022/10/01 06:43:31;;;;;;;7.13;6.30;;;;;;;;;;5072710;28;20827;-74
2022/10/01 06:46:02;;;;;;;7.63;6.37;;;;;;;;;;5072646;28;20499;-74
2022/10/01 06:48:31;;;;;;;6.03;5.30;;;;;;;;;;5072518;28;20460;-74
2022/10/01 06:50:58;;;;;;;10.10;5.73;;;;;;;;;;5072647;28;20451;-74
2022/10/01 06:53:27;;;;;;;7.60;5.50;;;;;;;;;;5072666;28;20961;-74
2022/10/01 06:55:54;;;;;;;6.10;5.43;;;;;;;;;;5072571;28;20463;-74
2022/10/01 06:58:22;;;;;;;6.07;5.40;;;;;;;;;;5072582;28;20455;-74
2022/10/01 07:00:50;;;;;;;6.80;6.27;;;;;;;;;;5072518;28;20817;-74
2022/10/01 07:03:18;;;;;;;7.80;7.00;;;;;;;;;;5072404;28;20945;-74
2022/10/01 07:05:46;;;;;;;5.83;5.33;;;;;;;;;;5072910;28;20495;-74
2022/10/01 07:08:13;;;;;;;5.53;5.03;;;;;;;;;;5076038;28;20452;-74
2022/10/01 07:10:41;;;;;;;6.87;6.27;;;;;;;;;;5075910;28;20831;-74
2022/10/01 07:13:09;;;;;;;5.87;5.27;;;;;;;;;;5076128;28;20450;-74
2022/10/01 07:15:36;;;;;;;6.93;5.13;;;;;;;;;;5075722;28;20494;-74
2022/10/01 07:18:03;;;;;;;7.47;5.30;;;;;;;;;;5075974;28;20447;-74
2022/10/01 07:20:34;;;;;;;5.20;4.77;;;;;;;;;;5075395;28;20823;-74
2022/10/01 07:23:02;;;;;;;6.80;6.00;;;;;;;;;;5075960;28;20455;-74
2022/10/01 07:25:30;;;;;;;5.87;4.97;;;;;;;;;;5075420;28;20498;-74
2022/10/01 07:27:57;;;;;;;8.73;5.50;;;;;;;;;;5075813;28;20546;-74
2022/10/01 07:30:25;;;;;;;7.27;6.17;;;;;;;;;;5075798;28;20462;-74
2022/10/01 07:32:53;;;;;;;6.43;5.00;;;;;;;;;;5075627;28;20458;-74
2022/10/01 07:35:20;;;;;;;9.77;6.73;;;;;;;;;;5075351;28;20511;-74
2022/10/01 07:37:47;;;;;;;9.53;7.83;;;;;;;;;;5075491;28;20470;-74
2022/10/01 07:40:16;;;;;;;6.00;5.33;;;;;;;;;;5075511;28;20464;-74
2022/10/01 07:42:43;;;;;;;5.87;5.27;;;;;;;;;;5075514;28;20458;-74
2022/10/01 07:45:11;;;;;;;4.90;4.50;;;;;;;;;;5075108;28;20510;-74
2022/10/01 07:47:38;;;;;;;6.60;4.77;;;;;;;;;;5075545;28;20937;-74
2022/10/01 07:50:06;;;;;;;4.80;4.40;;;;;;;;;;5075651;28;20827;-74
2022/10/01 07:52:33;;;;;;;4.83;4.33;;;;;;;;;;5075471;28;20443;-73
2022/10/01 07:55:00;;;;;;;4.40;4.00;;;;;;;;;;5074961;28;20525;-74
2022/10/01 07:57:29;;;;;;;4.57;4.17;;;;;;;;;;5075112;28;20459;-74
2022/10/01 07:59:56;;;;;;;4.60;4.20;;;;;;;;;;5075224;28;20823;-74
2022/10/01 08:02:23;;;;;;;6.87;4.60;;;;;;;;;;5075153;28;20455;-74
2022/10/01 08:07:35;;;;;;;5.27;4.20;;;;;;;;;;5075160;28;20586;-74
2022/10/01 08:10:04;;;;;;;4.73;4.03;;;;;;;;;;5075089;28;20921;-74
2022/10/01 08:12:33;;;;;;;5.00;4.50;;;;;;;;;;5074880;28;20546;-74
2022/10/01 08:15:01;;;;;;;5.10;4.67;;;;;;;;;;5074673;28;20551;-74
2022/10/01 08:17:28;;;;;;;5.13;4.73;;;;;;;;;;5073990;28;20513;-74
2022/10/01 08:19:55;;;;;;;4.90;4.50;;;;;;;;;;5074401;28;20474;-74
2022/10/01 08:22:22;;;;;;;5.20;4.73;;;;;;;;;;5074701;28;20456;-74
2022/10/01 08:24:50;;;;;;;8.60;4.40;;;;;;;;;;5074414;28;20481;-74
2022/10/01 08:27:17;;;;;;;5.30;4.37;;;;;;;;;;5074740;28;20452;-74
2022/10/01 08:29:45;;;;;;;4.80;4.17;;;;;;;;;;5074685;28;20448;-74
2022/10/01 08:32:13;;;;;;;8.17;5.07;;;;;;;;;;5074691;28;20451;-74
2022/10/01 08:34:40;;;;;;;4.30;3.90;;;;;;;;;;5074142;28;20479;-74
2022/10/01 08:37:07;;;;;;;7.97;4.93;;;;;;;;;;5074303;28;20459;-74
2022/10/01 08:39:35;;;;;;;5.27;4.20;;;;;;;;;;5074454;28;20475;-74
2022/10/01 08:42:06;;;;;;;4.97;4.57;;;;;;;;;;5074439;28;20456;-74
2022/10/01 08:44:40;;;;;;;4.47;4.07;;;;;;;;;;5073997;28;20485;-74
2022/10/01 08:47:11;;;;;;;4.50;4.03;;;;;;;;;;5074245;28;20479;-74
2022/10/01 08:49:41;;;;;;;3.80;3.50;;;;;;;;;;5074267;28;20451;-74
2022/10/01 08:52:13;;;;;;;5.17;4.70;;;;;;;;;;5074162;28;20505;-74
2022/10/01 08:54:43;;;;;;;4.97;4.47;;;;;;;;;;5073990;28;20495;-74
2022/10/01 08:57:12;;;;;;;5.73;4.07;;;;;;;;;;5074105;28;20448;-74
2022/10/01 08:59:41;;;;;;;3.73;3.43;;;;;;;;;;5073978;28;20459;-74
2022/10/01 09:02:15;;;;;;;6.33;3.80;;;;;;;;;;5073899;28;20458;-74
2022/10/01 09:04:43;;;;;;;4.60;4.20;;;;;;;;;;5073704;28;20472;-74
2022/10/01 09:07:20;;;;;;;4.40;3.90;;;;;;;;;;5073813;28;21026;-74
2022/10/01 09:09:54;;;;;;;4.10;3.70;;;;;;;;;;5073943;28;20451;-74
2022/10/01 09:12:28;;;;;;;4.90;4.23;;;;;;;;;;5073438;28;20485;-74
2022/10/01 09:15:02;;;;;;;4.43;4.03;;;;;;;;;;5073528;28;20502;-74
2022/10/01 09:17:37;;;;;;;6.73;4.07;;;;;;;;;;5073688;28;20455;-74
2022/10/01 09:20:11;;;;;;;4.53;4.13;;;;;;;;;;5073483;28;20466;-74
2022/10/01 09:22:39;;;;;;;5.80;3.40;;;;;;;;;;5073789;28;20469;-74
2022/10/01 09:25:12;;;;;;;4.00;3.70;;;;;;;;;;5073311;28;20981;-74
2022/10/01 09:27:40;;;;;;;3.87;3.57;;;;;;;;;;5073457;28;20509;-74
2022/10/01 09:30:10;;;;;;;5.70;3.50;;;;;;;;;;5073347;28;20902;-74
2022/10/01 09:32:40;;;;;;;5.80;3.83;;;;;;;;;;5073382;28;20509;-74
2022/10/01 09:35:15;;;;;;;3.60;3.30;;;;;;;;;;5073141;28;20495;-74
2022/10/01 09:37:47;;;;;;;4.43;3.60;;;;;;;;;;5073161;28;20470;-74
2022/10/01 09:40:18;;;;;;;2.80;2.60;;;;;;;;;;5073561;28;20455;-74
2022/10/01 09:42:46;;;;;;;4.40;3.07;;;;;;;;;;5073293;28;20452;-74
2022/10/01 09:45:14;;;;;;;3.70;3.10;;;;;;;;;;5073233;28;20471;-74
2022/10/01 09:47:43;;;;;;;4.40;4.00;;;;;;;;;;5073135;28;20451;-74
2022/10/01 09:50:15;;;;;;;3.53;2.93;;;;;;;;;;5073205;28;20505;-74
2022/10/01 09:52:42;;;;;;;3.67;3.37;;;;;;;;;;5073343;28;20444;-74
2022/10/01 09:55:16;;;;;;;5.03;2.97;;;;;;;;;;5072900;28;20463;-74
2022/10/01 09:57:45;;;;;;;2.90;2.70;;;;;;;;;;5073151;28;20458;-74
2022/10/01 10:00:16;;;;;;;5.30;3.70;;;;;;;;;;5072902;28;20462;-74
2022/10/01 10:02:44;;;;;;;4.53;3.83;;;;;;;;;;5073038;28;20463;-74
2022/10/01 10:05:16;;;;;;;3.70;3.37;;;;;;;;;;5072813;28;20471;-74
2022/10/01 10:07:45;;;;;;;3.77;3.47;;;;;;;;;;5073073;28;20477;-74
2022/10/01 10:10:18;;;;;;;4.00;3.60;;;;;;;;;;5073098;28;20843;-74
2022/10/01 10:12:45;;;;;;;3.63;3.00;;;;;;;;;;5072948;28;20452;-74
2022/10/01 10:15:16;;;;;;;3.40;2.60;;;;;;;;;;5072642;28;20470;-74
2022/10/01 10:17:45;;;;;;;3.53;2.73;;;;;;;;;;5073232;28;20879;-74
2022/10/01 10:20:14;;;;;;;3.20;2.90;;;;;;;;;;5072580;28;20539;-74
2022/10/01 10:22:42;;;;;;;3.33;3.00;;;;;;;;;;5073119;28;20446;-74
2022/10/01 10:25:16;;;;;;;3.40;3.10;;;;;;;;;;5072656;28;21011;-74
2022/10/01 10:27:51;;;;;;;3.83;3.50;;;;;;;;;;5072806;28;20498;-74
2022/10/01 10:30:18;;;;;;;3.37;3.07;;;;;;;;;;5073012;28;20836;-74
2022/10/01 10:32:47;;;;;;;4.70;4.00;;;;;;;;;;5072899;28;20451;-74
2022/10/01 10:35:17;;;;;;;4.43;3.60;;;;;;;;;;5072659;28;20471;-74
2022/10/01 10:37:48;;;;;;;2.87;2.57;;;;;;;;;;5072503;28;20458;-74
2022/10/01 10:40:18;;;;;;;4.47;4.07;;;;;;;;;;5072959;28;20461;-74
2022/10/01 10:42:47;;;;;;;4.70;3.10;;;;;;;;;;5076821;28;20550;-74
2022/10/01 10:45:16;;;;;;;3.97;3.27;;;;;;;;;;5076389;28;20468;-74
2022/10/01 10:47:45;;;;;;;3.17;2.87;;;;;;;;;;5076669;28;20491;-74
2022/10/01 10:50:19;;;;;;;4.27;2.70;;;;;;;;;;5076591;28;20814;-74
2022/10/01 10:52:48;;;;;;;5.13;2.87;;;;;;;;;;5076604;28;20450;-74
2022/10/01 10:55:21;;;;;;;3.50;3.20;;;;;;;;;;5076036;28;20476;-74
2022/10/01 10:57:48;;;;;;;3.23;2.83;;;;;;;;;;5076621;28;20439;-74
2022/10/01 11:00:17;;;;;;;3.07;2.77;;;;;;;;;;5076555;28;20451;-74
2022/10/01 11:02:49;;;;;;;5.00;4.00;;;;;;;;;;5076425;28;20470;-74
2022/10/01 11:05:19;;;;;;;6.83;5.80;;;;;;;;;;5076049;28;20483;-74
2022/10/01 11:07:49;;;;;;;3.83;3.27;;;;;;;;;;5076298;28;20507;-74
2022/10/01 11:10:23;;;;;;;5.30;3.53;;;;;;;;;;5076402;28;20533;-74
2022/10/01 11:13:05;;;;;;;3.13;2.80;;;;;;;;;;5076252;28;20455;-74
2022/10/01 11:15:42;;;;;;;2.93;2.63;;;;;;;;;;5075721;28;20483;-74
2022/10/01 11:18:27;;;;;;;3.53;3.23;;;;;;;;;;5076211;28;20455;-74
2022/10/01 11:21:03;;;;;;;4.13;3.73;;;;;;;;;;5075518;28;20818;-74
2022/10/01 11:23:41;;;;;;;3.40;3.10;;;;;;;;;;5075797;28;20447;-74
2022/10/01 11:26:15;;;;;;;4.00;3.57;;;;;;;;;;5075841;28;20486;-74
2022/10/01 11:28:45;;;;;;;4.90;3.60;;;;;;;;;;5075826;28;20447;-74
2022/10/01 11:31:16;;;;;;;4.73;4.23;;;;;;;;;;5075890;28;20447;-74
2022/10/01 11:33:49;;;;;;;8.93;3.33;;;;;;;;;;5075421;28;20460;-74
2022/10/01 11:36:24;;;;;;;7.23;3.40;;;;;;;;;;5075499;28;20471;-74
2022/10/01 11:38:55;;;;;;;18.40;4.00;;;;;;;;;;5075725;28;20451;-74
2022/10/01 11:41:25;;;;;;;5.90;3.63;;;;;;;;;;5075661;28;20448;-74
2022/10/01 11:43:53;;;;;;;6.93;3.50;;;;;;;;;;5075752;28;20464;-74
2022/10/01 11:46:29;;;;;;;3.77;3.43;;;;;;;;;;5075223;28;20487;-74
2022/10/01 11:49:01;;;;;;;6.70;4.27;;;;;;;;;;5075479;28;20577;-74
2022/10/01 11:51:30;;;;;;;5.67;4.00;;;;;;;;;;5075188;28;20452;-74
2022/10/01 11:54:01;;;;;;;11.57;9.73;;;;;;;;;;5074289;28;20968;-74
2022/10/01 11:59:20;;;;;;;16.83;8.20;;;;;;;;;;5075464;28;21006;-74
2022/10/01 12:01:50;;;;;;;7.83;5.50;;;;;;;;;;5075978;28;20794;-74
2022/10/01 12:04:25;;;;;;;5.97;4.60;;;;;;;;;;5074994;28;20474;-74
2022/10/01 12:06:55;;;;;;;7.77;5.73;;;;;;;;;;5075108;28;20495;-74
2022/10/01 12:09:27;;;;;;;8.23;4.70;;;;;;;;;;5075195;28;20467;-74
2022/10/01 12:12:00;;;;;;;4.77;4.30;;;;;;;;;;5074938;28;20456;-74
2022/10/01 12:14:30;;;;;;;5.50;5.00;;;;;;;;;;5074897;28;20498;-74
2022/10/01 12:16:59;;;;;;;9.80;6.30;;;;;;;;;;5075155;28;20546;-74
2022/10/01 12:19:28;;;;;;;5.33;4.53;;;;;;;;;;5074447;28;20463;-75
2022/10/01 12:21:57;;;;;;;5.03;4.50;;;;;;;;;;5075088;28;20478;-74
2022/10/01 12:24:28;;;;;;;168.17;70.10;;;;;;;;;;5074417;28;20471;-74
2022/10/01 12:27:00;;;;;;;411.07;204.40;;;;;;;;;;5074853;28;20491;-74
2022/10/01 12:29:31;;;;;;;84.17;41.27;;;;;;;;;;5074640;28;20444;-74
2022/10/01 12:32:01;;;;;;;5.77;4.67;;;;;;;;;;5075000;28;20452;-74
2022/10/01 12:34:34;;;;;;;4.20;3.80;;;;;;;;;;5074202;28;20981;-74
2022/10/01 12:37:09;;;;;;;4.53;4.03;;;;;;;;;;5074434;28;20459;-74
2022/10/01 12:39:44;;;;;;;5.60;5.10;;;;;;;;;;5074584;28;20450;-74
2022/10/01 12:42:21;;;;;;;6.33;3.23;;;;;;;;;;5074762;28;20501;-74
2022/10/01 12:44:55;;;;;;;4.13;3.47;;;;;;;;;;5073988;28;20490;-74
2022/10/01 12:47:28;;;;;;;4.87;4.23;;;;;;;;;;5074356;28;20487;-74
2022/10/01 12:50:01;;;;;;;5.90;4.80;;;;;;;;;;5074300;28;20448;-74
2022/10/01 12:52:33;;;;;;;6.43;4.73;;;;;;;;;;5074552;28;20871;-74
2022/10/01 12:55:09;;;;;;;7.50;5.10;;;;;;;;;;5074208;28;20482;-74
2022/10/01 12:57:43;;;;;;;5.13;4.63;;;;;;;;;;5073962;28;20451;-74
2022/10/01 13:00:14;;;;;;;4.47;4.07;;;;;;;;;;5074233;28;20891;-74
2022/10/01 13:02:49;;;;;;;5.93;4.30;;;;;;;;;;5074179;28;20455;-74
2022/10/01 13:05:18;;;;;;;5.43;4.77;;;;;;;;;;5073393;28;20589;-74
2022/10/01 13:07:55;;;;;;;6.70;5.60;;;;;;;;;;5073667;28;20491;-74
2022/10/01 13:10:32;;;;;;;5.00;4.33;;;;;;;;;;5073643;28;20451;-74
2022/10/01 13:13:03;;;;;;;6.97;4.70;;;;;;;;;;5073846;28;20459;-74
2022/10/01 13:15:33;;;;;;;5.33;4.80;;;;;;;;;;5073380;28;20472;-74
2022/10/01 13:18:05;;;;;;;7.80;5.93;;;;;;;;;;5073837;28;20455;-74
2022/10/01 13:20:39;;;;;;;7.00;5.53;;;;;;;;;;5073069;28;20464;-74
2022/10/01 13:23:09;;;;;;;7.63;5.10;;;;;;;;;;5073771;28;20458;-74
2022/10/01 13:25:43;;;;;;;5.53;5.03;;;;;;;;;;5073294;28;20476;-74
2022/10/01 13:28:14;;;;;;;7.93;5.33;;;;;;;;;;5073402;28;20483;-74
2022/10/01 13:30:50;;;;;;;4.83;4.30;;;;;;;;;;5073709;28;20455;-74
2022/10/01 13:33:23;;;;;;;4.30;3.80;;;;;;;;;;5073586;28;20463;-74
2022/10/01 13:35:54;;;;;;;4.70;3.63;;;;;;;;;;5073397;28;20482;-74
2022/10/01 13:38:27;;;;;;;5.03;4.53;;;;;;;;;;5073369;28;20968;-74
2022/10/01 13:40:58;;;;;;;5.07;4.60;;;;;;;;;;5073520;28;20451;-74
2022/10/01 13:43:27;;;;;;;4.47;4.03;;;;;;;;;;5073253;28;20538;-74
2022/10/01 13:45:55;;;;;;;4.23;3.83;;;;;;;;;;5073310;28;20546;-74
2022/10/01 13:48:23;;;;;;;4.40;3.93;;;;;;;;;;5072896;28;20491;-74
2022/10/01 13:50:55;;;;;;;6.00;5.40;;;;;;;;;;5072601;28;20457;-74
2022/10/01 13:53:24;;;;;;;5.90;5.30;;;;;;;;;;5072324;28;20452;-74
2022/10/01 13:55:52;;;;;;;10.13;5.53;;;;;;;;;;5072149;28;20525;-74
2022/10/01 13:58:25;;;;;;;8.47;6.37;;;;;;;;;;5072427;28;20451;-74
2022/10/01 14:00:54;;;;;;;10.77;8.60;;;;;;;;;;5072694;28;20602;-74
2022/10/01 14:03:28;;;;;;;10.60;7.37;;;;;;;;;;5072501;28;20522;-74
2022/10/01 14:05:57;;;;;;;7.70;6.20;;;;;;;;;;5072396;28;20497;-74
2022/10/01 14:08:26;;;;;;;12.40;8.50;;;;;;;;;;5072042;28;20495;-74
2022/10/01 14:16:31;;;;;;;7.77;6.67;;;;;;;;;;5071224;28;20489;-74
2022/10/01 14:18:59;;;;;;;10.60;8.47;;;;;;;;;;5071655;28;20952;-75
2022/10/01 14:21:31;;;;;;;13.30;9.30;;;;;;;;;;5072151;28;20448;-75
2022/10/01 14:24:04;;;;;;;13.73;10.30;;;;;;;;;;5072113;28;20458;-75
2022/10/01 14:26:34;;;;;;;9.50;7.53;;;;;;;;;;5071984;28;20542;-75
2022/10/01 14:29:06;;;;;;;15.30;9.23;;;;;;;;;;5072062;28;20483;-74
2022/10/01 14:31:38;;;;;;;10.20;8.63;;;;;;;;;;5072208;28;20459;-75
2022/10/01 14:34:14;;;;;;;8.33;6.97;;;;;;;;;;5072005;28;20455;-74
2022/10/01 14:36:42;;;;;;;9.60;6.50;;;;;;;;;;5071765;28;20473;-74
2022/10/01 14:39:14;;;;;;;8.80;6.80;;;;;;;;;;5072256;28;20967;-74
2022/10/01 14:41:41;;;;;;;11.60;9.37;;;;;;;;;;5072110;28;20466;-74
2022/10/01 14:44:24;;;;;;;10.73;8.70;;;;;;;;;;5071629;28;20546;-75
2022/10/01 14:46:51;;;;;;;13.63;8.50;;;;;;;;;;5072151;28;20794;-74
2022/10/01 14:49:22;;;;;;;8.90;7.10;;;;;;;;;;5071896;28;20460;-74
2022/10/01 14:51:50;;;;;;;11.37;9.47;;;;;;;;;;5071861;28;20440;-74
2022/10/01 14:54:18;;;;;;;16.03;12.80;;;;;;;;;;5071823;28;20833;-74
2022/10/01 14:56:45;;;;;;;9.60;8.43;;;;;;;;;;5071658;28;20451;-74
2022/10/01 14:59:18;;;;;;;9.50;8.17;;;;;;;;;;5071927;28;20452;-74
2022/10/01 15:01:56;;;;;;;8.60;6.43;;;;;;;;;;5071624;28;20447;-74